createdAt,value
2017-11-16T00:00:17.490Z,32.73
2017-11-16T00:02:44.994Z,36.03
2017-11-16T00:05:12.490Z,32.23
2017-11-16T00:07:40.232Z,35.47
2017-11-16T00:10:07.787Z,36.83
2017-11-16T00:12:35.285Z,39.33
2017-11-16T00:15:02.829Z,40.50
2017-11-16T00:17:30.330Z,36.97
2017-11-16T00:19:57.827Z,35.93
2017-11-16T00:22:25.366Z,47.47
2017-11-16T00:24:52.865Z,45.30
2017-11-16T00:27:20.360Z,39.87
2017-11-16T00:29:47.910Z,34.53
2017-11-16T00:32:15.408Z,38.77
2017-11-16T00:34:42.973Z,38.67
2017-11-16T00:37:10.608Z,38.37
2017-11-16T00:39:38.110Z,38.43
2017-11-16T00:42:05.613Z,35.57
2017-11-16T00:44:33.289Z,36.30
2017-11-16T00:47:00.784Z,35.73
2017-11-16T00:49:28.303Z,37.17
2017-11-16T00:51:55.890Z,33.97
2017-11-16T00:54:23.393Z,36.10
2017-11-16T00:56:50.908Z,35.40
2017-11-16T00:59:18.466Z,36.83
2017-11-16T01:01:46.027Z,38.50
2017-11-16T01:04:13.523Z,35.40
2017-11-16T01:06:41.069Z,34.93
2017-11-16T01:09:08.578Z,41.10
2017-11-16T01:11:36.145Z,36.67
2017-11-16T01:14:03.808Z,35.70
2017-11-16T01:16:31.355Z,40.10
2017-11-16T01:18:58.853Z,43.30
2017-11-16T01:21:26.607Z,36.80
2017-11-16T01:23:54.122Z,40.50
2017-11-16T01:26:21.705Z,36.90
2017-11-16T01:28:49.284Z,37.30
2017-11-16T01:31:16.784Z,35.27
2017-11-16T01:33:44.280Z,38.23
2017-11-16T01:36:11.840Z,34.03
2017-11-16T01:38:39.339Z,32.90
2017-11-16T01:41:06.825Z,32.80
2017-11-16T01:43:34.352Z,31.47
2017-11-16T01:46:01.853Z,31.83
2017-11-16T01:48:29.342Z,32.07
2017-11-16T01:50:56.893Z,30.60
2017-11-16T01:53:24.384Z,30.97
2017-11-16T01:55:51.884Z,31.70
2017-11-16T01:58:19.446Z,32.40
2017-11-16T02:00:46.937Z,30.77
2017-11-16T02:03:14.430Z,27.97
2017-11-16T02:05:41.962Z,28.70
2017-11-16T02:08:09.491Z,27.67
2017-11-16T02:10:36.990Z,27.77
2017-11-16T02:13:04.518Z,27.70
2017-11-16T02:15:32.080Z,32.63
2017-11-16T02:17:59.579Z,30.57
2017-11-16T02:20:27.183Z,29.33
2017-11-16T02:22:54.685Z,30.27
2017-11-16T02:25:22.176Z,29.90
2017-11-16T02:27:49.774Z,32.40
2017-11-16T02:30:17.269Z,29.10
2017-11-16T02:32:44.781Z,32.27
2017-11-16T02:35:12.354Z,30.43
2017-11-16T02:37:39.845Z,31.10
2017-11-16T02:40:07.354Z,28.70
2017-11-16T02:42:34.937Z,30.70
2017-11-16T02:45:02.460Z,29.90
2017-11-16T02:47:29.973Z,32.10
2017-11-16T02:49:57.520Z,31.43
2017-11-16T02:52:25.025Z,31.47
2017-11-16T02:54:52.525Z,33.27
2017-11-16T02:57:20.163Z,29.53
2017-11-16T02:59:48.472Z,30.67
2017-11-16T03:02:15.969Z,32.27
2017-11-16T03:04:43.679Z,30.30
2017-11-16T03:07:11.167Z,29.00
2017-11-16T03:09:38.657Z,28.80
2017-11-16T03:12:06.203Z,30.00
2017-11-16T03:14:33.767Z,30.03
2017-11-16T03:17:01.272Z,32.40
2017-11-16T03:19:28.819Z,29.30
2017-11-16T03:21:56.321Z,29.57
2017-11-16T03:24:23.822Z,29.47
2017-11-16T03:26:51.393Z,33.27
2017-11-16T03:29:18.903Z,28.80
2017-11-16T03:31:46.409Z,26.80
2017-11-16T03:34:13.973Z,30.50
2017-11-16T03:36:41.527Z,29.53
2017-11-16T03:39:09.103Z,32.20
2017-11-16T03:41:36.663Z,29.83
2017-11-16T03:44:04.270Z,28.47
2017-11-16T03:46:31.781Z,27.93
2017-11-16T03:48:59.322Z,30.40
2017-11-16T03:51:26.834Z,30.50
2017-11-16T03:53:54.334Z,30.10
2017-11-16T03:56:21.897Z,31.23
2017-11-16T03:58:49.400Z,29.20
2017-11-16T04:01:16.898Z,30.60
2017-11-16T04:03:44.443Z,32.60
2017-11-16T04:06:11.948Z,27.73
2017-11-16T04:08:39.454Z,30.90
2017-11-16T04:11:07.142Z,29.63
2017-11-16T04:13:34.647Z,33.10
2017-11-16T04:16:02.161Z,32.20
2017-11-16T04:18:29.934Z,31.50
2017-11-16T04:20:57.432Z,31.70
2017-11-16T04:23:24.928Z,32.50
2017-11-16T04:25:52.460Z,32.60
2017-11-16T04:28:19.953Z,35.03
2017-11-16T04:30:47.458Z,35.80
2017-11-16T04:33:15.081Z,37.53
2017-11-16T04:35:42.586Z,39.07
2017-11-16T04:38:10.089Z,38.83
2017-11-16T04:40:37.660Z,37.97
2017-11-16T04:43:05.173Z,36.63
2017-11-16T04:45:32.678Z,37.10
2017-11-16T04:48:00.206Z,36.53
2017-11-16T04:50:27.711Z,37.13
2017-11-16T04:52:55.253Z,37.97
2017-11-16T04:55:22.757Z,35.70
2017-11-16T04:57:50.255Z,31.63
2017-11-16T05:00:17.777Z,35.23
2017-11-16T05:02:45.285Z,34.50
2017-11-16T05:05:12.787Z,34.00
2017-11-16T05:07:40.421Z,32.33
2017-11-16T05:10:07.960Z,34.23
2017-11-16T05:12:35.524Z,35.00
2017-11-16T05:15:03.083Z,31.30
2017-11-16T05:17:30.577Z,32.90
2017-11-16T05:19:58.083Z,31.30
2017-11-16T05:22:25.635Z,33.30
2017-11-16T05:24:53.134Z,32.50
2017-11-16T05:27:20.633Z,33.00
2017-11-16T05:29:48.194Z,31.77
2017-11-16T05:32:15.695Z,31.13
2017-11-16T05:37:17.096Z,30.40
2017-11-16T05:39:44.596Z,28.37
2017-11-16T05:42:12.175Z,29.37
2017-11-16T05:44:39.719Z,29.63
2017-11-16T05:47:07.219Z,32.17
2017-11-16T05:49:34.753Z,29.67
2017-11-16T05:52:02.295Z,30.93
2017-11-16T05:54:29.803Z,29.77
2017-11-16T05:56:57.339Z,26.30
2017-11-16T05:59:24.876Z,29.47
2017-11-16T06:01:52.377Z,28.60
2017-11-16T06:04:19.905Z,30.30
2017-11-16T06:06:47.560Z,29.10
2017-11-16T06:09:15.061Z,31.03
2017-11-16T06:11:42.577Z,28.23
2017-11-16T06:14:10.112Z,29.57
2017-11-16T06:16:37.602Z,29.60
2017-11-16T06:19:05.109Z,27.93
2017-11-16T06:21:32.653Z,29.80
2017-11-16T06:24:00.142Z,30.70
2017-11-16T06:26:27.732Z,31.03
2017-11-16T06:28:55.271Z,25.60
2017-11-16T06:31:22.776Z,32.57
2017-11-16T06:33:50.268Z,27.47
2017-11-16T06:36:17.815Z,30.33
2017-11-16T06:38:45.334Z,26.90
2017-11-16T06:41:12.826Z,29.50
2017-11-16T06:43:40.360Z,30.87
2017-11-16T06:46:07.856Z,30.53
2017-11-16T06:48:35.357Z,30.10
2017-11-16T06:51:02.913Z,32.60
2017-11-16T06:53:30.409Z,31.57
2017-11-16T06:55:57.919Z,31.40
2017-11-16T06:58:25.496Z,28.57
2017-11-16T07:00:53.565Z,29.80
2017-11-16T07:03:21.123Z,30.47
2017-11-16T07:05:48.669Z,31.90
2017-11-16T07:08:16.257Z,38.63
2017-11-16T07:10:43.785Z,33.93
2017-11-16T07:13:11.381Z,32.07
2017-11-16T07:15:38.905Z,35.63
2017-11-16T07:18:06.402Z,33.13
2017-11-16T07:20:34.006Z,34.30
2017-11-16T07:23:01.572Z,33.90
2017-11-16T07:25:29.070Z,36.17
2017-11-16T07:27:56.572Z,38.87
2017-11-16T07:30:24.114Z,36.37
2017-11-16T07:32:51.615Z,36.30
2017-11-16T07:35:19.111Z,37.00
2017-11-16T07:37:46.652Z,37.70
2017-11-16T07:40:14.169Z,37.63
2017-11-16T07:42:42.293Z,37.33
2017-11-16T07:45:09.865Z,34.80
2017-11-16T07:47:37.361Z,36.00
2017-11-16T07:50:04.870Z,37.13
2017-11-16T07:52:32.408Z,35.53
2017-11-16T07:54:59.905Z,34.97
2017-11-16T07:57:27.447Z,32.53
2017-11-16T07:59:54.997Z,31.97
2017-11-16T08:02:22.500Z,35.43
2017-11-16T08:04:49.999Z,34.17
2017-11-16T08:07:17.535Z,34.30
2017-11-16T08:09:45.121Z,32.90
2017-11-16T08:12:12.623Z,32.20
2017-11-16T08:14:40.150Z,36.03
2017-11-16T08:17:07.650Z,37.20
2017-11-16T08:19:35.166Z,38.67
2017-11-16T08:22:02.729Z,38.30
2017-11-16T08:24:30.226Z,40.57
2017-11-16T08:26:57.732Z,42.30
2017-11-16T08:29:25.387Z,39.37
2017-11-16T08:31:52.948Z,42.83
2017-11-16T08:34:20.458Z,42.27
2017-11-16T08:36:47.993Z,45.63
2017-11-16T08:39:15.495Z,43.40
2017-11-16T08:41:43.004Z,45.67
2017-11-16T08:44:10.551Z,47.30
2017-11-16T08:46:38.054Z,49.73
2017-11-16T08:49:05.661Z,49.27
2017-11-16T08:51:33.245Z,47.57
2017-11-16T08:54:00.741Z,48.57
2017-11-16T08:56:28.243Z,48.57
2017-11-16T08:58:55.792Z,49.00
2017-11-16T09:01:23.301Z,59.30
2017-11-16T09:03:50.807Z,48.30
2017-11-16T09:06:18.324Z,48.03
2017-11-16T09:08:45.842Z,44.37
2017-11-16T09:11:13.489Z,49.07
2017-11-16T09:13:41.042Z,49.13
2017-11-16T09:16:08.537Z,50.97
2017-11-16T09:18:36.390Z,45.70
2017-11-16T09:21:03.937Z,49.03
2017-11-16T09:23:31.508Z,50.73
2017-11-16T09:25:59.035Z,45.40
2017-11-16T09:28:26.534Z,46.17
2017-11-16T09:30:54.032Z,43.33
2017-11-16T09:33:21.625Z,46.50
2017-11-16T09:35:49.132Z,46.80
2017-11-16T09:38:16.637Z,46.17
2017-11-16T09:40:44.197Z,44.07
2017-11-16T09:43:11.714Z,44.83
2017-11-16T09:45:39.257Z,45.50
2017-11-16T09:48:06.804Z,49.23
2017-11-16T09:50:34.345Z,47.00
2017-11-16T09:53:01.849Z,45.10
2017-11-16T09:55:29.566Z,48.57
2017-11-16T09:57:57.073Z,51.17
2017-11-16T10:00:24.578Z,50.87
2017-11-16T10:02:52.120Z,47.97
2017-11-16T10:05:19.628Z,50.60
2017-11-16T10:07:47.128Z,45.90
2017-11-16T10:10:14.673Z,45.97
2017-11-16T10:12:42.181Z,47.73
2017-11-16T10:15:09.700Z,46.27
2017-11-16T10:17:37.220Z,47.33
2017-11-16T10:20:04.753Z,48.17
2017-11-16T10:22:32.407Z,48.97
2017-11-16T10:24:59.910Z,48.37
2017-11-16T10:27:27.428Z,49.50
2017-11-16T10:29:54.987Z,48.90
2017-11-16T10:32:22.509Z,45.87
2017-11-16T10:34:50.114Z,51.67
2017-11-16T10:37:17.674Z,45.50
2017-11-16T10:39:45.171Z,42.37
2017-11-16T10:42:12.676Z,45.80
2017-11-16T10:44:40.215Z,46.10
2017-11-16T10:47:07.797Z,42.40
2017-11-16T10:49:35.332Z,43.93
2017-11-16T10:52:02.911Z,43.20
2017-11-16T10:54:30.405Z,46.30
2017-11-16T10:56:57.931Z,43.40
2017-11-16T10:59:25.493Z,45.50
2017-11-16T11:01:52.984Z,45.17
2017-11-16T11:04:20.481Z,42.53
2017-11-16T11:06:48.076Z,43.67
2017-11-16T11:09:15.579Z,41.93
2017-11-16T11:11:43.100Z,40.57
2017-11-16T11:14:10.630Z,36.57
2017-11-16T11:16:38.197Z,37.97
2017-11-16T11:19:05.688Z,38.27
2017-11-16T11:21:33.216Z,42.20
2017-11-16T11:24:00.773Z,40.07
2017-11-16T11:26:28.264Z,38.00
2017-11-16T11:28:55.809Z,37.47
2017-11-16T11:31:23.306Z,36.53
2017-11-16T11:33:50.793Z,32.60
2017-11-16T11:36:18.316Z,34.10
2017-11-16T11:38:46.739Z,36.73
2017-11-16T11:41:14.240Z,32.80
2017-11-16T11:43:41.794Z,31.60
2017-11-16T11:46:09.286Z,32.67
2017-11-16T11:48:36.877Z,33.83
2017-11-16T11:51:04.454Z,30.50
2017-11-16T11:53:31.949Z,32.27
2017-11-16T11:55:59.453Z,29.50
2017-11-16T11:58:27.119Z,31.50
2017-11-16T12:00:54.624Z,28.97
2017-11-16T12:03:22.120Z,29.97
2017-11-16T12:05:49.669Z,31.03
2017-11-16T12:08:17.169Z,29.23
2017-11-16T12:10:44.674Z,30.90
2017-11-16T12:13:12.243Z,29.40
2017-11-16T12:15:39.744Z,30.67
2017-11-16T12:18:07.251Z,29.47
2017-11-16T12:20:34.781Z,29.50
2017-11-16T12:23:02.333Z,32.40
2017-11-16T12:25:29.835Z,30.17
2017-11-16T12:27:57.335Z,26.17
2017-11-16T12:30:24.861Z,29.80
2017-11-16T12:32:52.437Z,26.40
2017-11-16T12:35:19.928Z,28.97
2017-11-16T12:37:47.460Z,27.50
2017-11-16T12:40:14.966Z,31.27
2017-11-16T12:42:42.479Z,29.53
2017-11-16T12:45:10.037Z,30.33
2017-11-16T12:47:37.553Z,28.87
2017-11-16T12:50:05.045Z,29.70
2017-11-16T12:52:32.589Z,31.10
2017-11-16T12:55:00.087Z,28.37
2017-11-16T12:57:27.593Z,29.40
2017-11-16T12:59:55.243Z,32.97
2017-11-16T13:02:22.894Z,32.23
2017-11-16T13:04:50.403Z,31.00
2017-11-16T13:07:17.963Z,30.57
2017-11-16T13:09:45.522Z,29.40
2017-11-16T13:12:13.080Z,30.57
2017-11-16T13:14:40.655Z,38.63
2017-11-16T13:17:08.202Z,37.20
2017-11-16T13:19:35.697Z,35.63
2017-11-16T13:22:03.229Z,32.73
2017-11-16T13:24:30.777Z,31.93
2017-11-16T13:26:58.333Z,29.60
2017-11-16T13:29:25.868Z,28.77
2017-11-16T13:31:53.364Z,28.70
2017-11-16T13:34:20.862Z,29.67
2017-11-16T13:36:48.415Z,30.43
2017-11-16T13:39:15.942Z,27.23
2017-11-16T13:41:43.440Z,28.53
2017-11-16T13:44:10.957Z,28.47
2017-11-16T13:46:38.619Z,28.27
2017-11-16T13:49:06.146Z,26.10
2017-11-16T13:51:33.654Z,26.23
2017-11-16T13:54:01.172Z,28.57
2017-11-16T13:56:28.785Z,27.30
2017-11-16T13:58:56.299Z,27.50
2017-11-16T14:01:23.799Z,28.37
2017-11-16T14:03:51.352Z,28.30
2017-11-16T14:06:18.856Z,27.63
2017-11-16T14:08:46.352Z,29.40
2017-11-16T14:11:13.877Z,28.33
2017-11-16T14:13:41.689Z,29.87
2017-11-16T14:16:09.229Z,29.10
2017-11-16T14:18:36.750Z,27.77
2017-11-16T14:21:04.325Z,23.77
2017-11-16T14:23:31.827Z,26.70
2017-11-16T14:25:59.352Z,26.07
2017-11-16T14:28:26.872Z,28.60
2017-11-16T14:30:54.461Z,24.63
2017-11-16T14:33:22.039Z,25.10
2017-11-16T14:35:49.586Z,22.73
2017-11-16T14:38:17.105Z,25.53
2017-11-16T14:40:44.718Z,23.50
2017-11-16T14:43:12.229Z,25.20
2017-11-16T14:45:39.736Z,25.47
2017-11-16T14:48:07.296Z,23.47
2017-11-16T14:50:34.844Z,23.70
2017-11-16T14:53:02.347Z,25.00
2017-11-16T14:55:29.873Z,25.23
2017-11-16T14:57:57.384Z,25.00
2017-11-16T15:00:24.993Z,26.83
2017-11-16T15:02:52.534Z,25.23
2017-11-16T15:05:20.029Z,29.37
2017-11-16T15:07:47.521Z,28.50
2017-11-16T15:10:15.072Z,26.90
2017-11-16T15:12:42.565Z,26.20
2017-11-16T15:15:10.087Z,26.40
2017-11-16T15:17:37.611Z,25.17
2017-11-16T15:20:05.140Z,32.50
2017-11-16T15:22:32.702Z,27.30
2017-11-16T15:25:00.258Z,28.17
2017-11-16T15:27:27.753Z,28.20
2017-11-16T15:29:55.257Z,29.63
2017-11-16T15:32:22.803Z,31.53
2017-11-16T15:34:50.398Z,28.73
2017-11-16T15:37:17.904Z,29.23
2017-11-16T15:39:45.516Z,29.50
2017-11-16T15:42:13.009Z,29.07
2017-11-16T15:44:40.506Z,26.80
2017-11-16T15:47:08.066Z,27.77
2017-11-16T15:49:35.564Z,34.57
2017-11-16T15:52:03.053Z,42.67
2017-11-16T15:54:30.610Z,133.63
2017-11-16T15:56:58.138Z,54.33
2017-11-16T15:59:25.698Z,29.27
2017-11-16T16:01:53.342Z,118.40
2017-11-16T16:04:20.842Z,59.97
2017-11-16T16:06:48.360Z,201.43
2017-11-16T16:09:15.911Z,115.70
2017-11-16T16:11:43.423Z,76.63
2017-11-16T16:14:10.934Z,40.23
2017-11-16T16:16:38.511Z,38.13
2017-11-16T16:19:06.028Z,34.80
2017-11-16T16:21:33.615Z,31.50
2017-11-16T16:24:01.168Z,28.93
2017-11-16T16:26:28.667Z,25.60
2017-11-16T16:28:56.166Z,21.87
2017-11-16T16:31:23.689Z,23.50
2017-11-16T16:33:51.187Z,21.80
2017-11-16T16:36:18.779Z,21.63
2017-11-16T16:38:46.418Z,20.50
2017-11-16T16:41:13.926Z,21.53
2017-11-16T16:43:41.439Z,20.70
2017-11-16T16:46:08.977Z,21.20
2017-11-16T16:48:36.592Z,21.77
2017-11-16T16:51:04.077Z,18.97
2017-11-16T16:53:31.601Z,16.40
2017-11-16T16:55:59.130Z,22.60
2017-11-16T16:58:26.633Z,24.57
2017-11-16T17:00:54.125Z,23.80
2017-11-16T17:03:21.665Z,24.47
2017-11-16T17:05:49.157Z,26.80
2017-11-16T17:08:16.648Z,24.10
2017-11-16T17:10:44.177Z,28.50
2017-11-16T17:13:11.683Z,25.60
2017-11-16T17:15:39.169Z,40.87
2017-11-16T17:18:06.698Z,23.37
2017-11-16T17:20:34.189Z,25.40
2017-11-16T17:23:01.696Z,23.90
2017-11-16T17:25:29.225Z,23.53
2017-11-16T17:27:56.831Z,21.97
2017-11-16T17:30:24.331Z,31.80
2017-11-16T17:32:51.882Z,24.57
2017-11-16T17:35:19.387Z,23.37
2017-11-16T17:37:46.941Z,22.57
2017-11-16T17:40:14.434Z,20.00
2017-11-16T17:42:41.927Z,20.90
2017-11-16T17:45:09.486Z,23.17
2017-11-16T17:47:36.975Z,24.10
2017-11-16T17:50:04.881Z,22.03
2017-11-16T17:52:32.425Z,22.00
2017-11-16T17:54:59.949Z,23.00
2017-11-16T17:57:27.437Z,24.87
2017-11-16T17:59:54.969Z,22.50
2017-11-16T18:02:22.525Z,22.67
2017-11-16T18:04:50.025Z,24.90
2017-11-16T18:07:17.637Z,25.20
2017-11-16T18:09:45.135Z,23.43
2017-11-16T18:12:12.659Z,24.20
2017-11-16T18:14:40.182Z,25.20
2017-11-16T18:17:07.699Z,24.33
2017-11-16T18:19:35.220Z,25.50
2017-11-16T18:22:02.726Z,31.17
2017-11-16T18:24:30.235Z,25.27
2017-11-16T18:26:57.790Z,25.33
2017-11-16T18:29:25.277Z,27.90
2017-11-16T18:31:52.787Z,25.90
2017-11-16T18:34:20.306Z,24.97
2017-11-16T18:36:47.860Z,26.53
2017-11-16T18:39:15.357Z,28.60
2017-11-16T18:41:42.859Z,24.60
2017-11-16T18:44:10.405Z,34.43
2017-11-16T18:46:37.913Z,32.87
2017-11-16T18:49:05.458Z,30.20
2017-11-16T18:51:33.055Z,26.30
2017-11-16T18:54:00.704Z,28.80
2017-11-16T18:56:28.248Z,28.80
2017-11-16T18:58:55.915Z,26.73
2017-11-16T19:01:23.548Z,27.53
2017-11-16T19:03:51.217Z,25.13
2017-11-16T19:06:18.836Z,26.40
2017-11-16T19:08:46.390Z,25.20
2017-11-16T19:11:14.094Z,28.07
2017-11-16T19:13:41.935Z,26.60
2017-11-16T19:16:09.839Z,25.73
2017-11-16T19:18:37.423Z,26.20
2017-11-16T19:21:05.031Z,25.50
2017-11-16T19:23:32.640Z,27.63
2017-11-16T19:26:00.488Z,28.20
2017-11-16T19:28:28.347Z,29.33
2017-11-16T19:30:56.105Z,28.87
2017-11-16T19:33:23.977Z,33.50
2017-11-16T19:35:51.946Z,37.10
2017-11-16T19:38:19.815Z,33.40
2017-11-16T19:40:47.680Z,29.00
2017-11-16T19:43:15.547Z,32.07
2017-11-16T19:45:43.410Z,36.43
2017-11-16T19:48:11.280Z,32.17
2017-11-16T19:50:39.144Z,36.60
2017-11-16T19:53:07.013Z,31.53
2017-11-16T19:55:34.877Z,32.37
2017-11-16T19:58:02.744Z,31.87
2017-11-16T20:00:30.687Z,32.10
2017-11-16T20:02:58.559Z,31.30
2017-11-16T20:05:26.445Z,33.30
2017-11-16T20:07:54.414Z,33.37
2017-11-16T20:10:22.571Z,37.90
2017-11-16T20:12:50.455Z,33.17
2017-11-16T20:15:18.338Z,29.50
2017-11-16T20:17:46.289Z,30.77
2017-11-16T20:20:14.259Z,36.90
2017-11-16T20:22:42.136Z,41.00
2017-11-16T20:25:09.997Z,32.10
2017-11-16T20:27:37.858Z,31.23
2017-11-16T20:30:05.828Z,32.83
2017-11-16T20:32:33.693Z,37.33
2017-11-16T20:35:01.561Z,33.27
2017-11-16T20:40:42.873Z,34.47
2017-11-16T20:46:26.083Z,40.00
2017-11-16T20:49:14.485Z,33.70
2017-11-16T20:54:51.158Z,33.80
2017-11-16T20:57:18.697Z,36.03
2017-11-16T20:59:46.235Z,35.00
2017-11-16T21:02:13.857Z,31.87
2017-11-16T21:04:41.374Z,36.20
2017-11-16T21:07:08.945Z,41.97
2017-11-16T21:09:36.610Z,36.10
2017-11-16T21:12:04.122Z,42.83
2017-11-16T21:14:31.626Z,35.77
2017-11-16T21:16:59.157Z,36.60
2017-11-16T21:19:26.666Z,38.90
2017-11-16T21:21:54.155Z,42.23
2017-11-16T21:24:21.693Z,39.90
2017-11-16T21:26:49.189Z,36.97
2017-11-16T21:29:16.686Z,39.87
2017-11-16T21:31:44.221Z,40.20
2017-11-16T21:34:11.749Z,37.73
2017-11-16T21:36:39.335Z,37.93
2017-11-16T21:39:06.887Z,40.37
2017-11-16T21:41:34.375Z,35.43
2017-11-16T21:44:01.869Z,41.83
2017-11-16T21:46:29.422Z,47.00
2017-11-16T21:48:56.928Z,36.97
2017-11-16T21:51:24.428Z,34.97
2017-11-16T21:53:51.978Z,36.27
2017-11-16T21:56:19.483Z,41.37
2017-11-16T21:58:47.042Z,36.60
2017-11-16T22:01:14.724Z,39.87
2017-11-16T22:03:42.219Z,39.30
2017-11-16T22:06:09.731Z,40.20
2017-11-16T22:08:37.619Z,34.57
2017-11-16T22:11:05.120Z,42.20
2017-11-16T22:13:32.735Z,39.67
2017-11-16T22:16:00.286Z,42.57
2017-11-16T22:18:27.840Z,38.97
2017-11-16T22:20:55.333Z,36.60
2017-11-16T22:23:22.954Z,37.40
2017-11-16T22:25:50.452Z,39.13
2017-11-16T22:28:17.940Z,40.67
2017-11-16T22:30:45.489Z,39.87
2017-11-16T22:33:12.986Z,34.77
2017-11-16T22:35:40.486Z,88.87
2017-11-16T22:38:08.013Z,56.40
2017-11-16T22:40:35.510Z,40.90
2017-11-16T22:43:03.012Z,41.53
2017-11-16T22:45:30.591Z,43.90
2017-11-16T22:47:58.083Z,37.97
2017-11-16T22:50:25.603Z,34.40
2017-11-16T22:52:53.144Z,35.90
2017-11-16T22:55:20.637Z,35.07
2017-11-16T22:57:48.196Z,41.27
2017-11-16T23:00:15.740Z,31.77
2017-11-16T23:02:43.244Z,71.40
2017-11-16T23:05:10.743Z,34.67
2017-11-16T23:07:38.307Z,36.73
2017-11-16T23:10:05.874Z,39.23
2017-11-16T23:12:33.385Z,38.23
2017-11-16T23:15:00.929Z,43.63
2017-11-16T23:17:28.428Z,42.50
2017-11-16T23:19:55.917Z,35.40
2017-11-16T23:22:23.469Z,34.70
2017-11-16T23:24:50.969Z,39.30
2017-11-16T23:27:18.723Z,46.40
2017-11-16T23:29:46.276Z,37.80
2017-11-16T23:32:13.769Z,35.57
2017-11-16T23:34:41.271Z,36.63
2017-11-16T23:37:08.921Z,37.10
2017-11-16T23:39:36.481Z,42.63
2017-11-16T23:42:04.034Z,36.30
2017-11-16T23:44:31.537Z,38.47
2017-11-16T23:46:59.081Z,38.10
2017-11-16T23:49:26.584Z,37.80
2017-11-16T23:51:54.081Z,39.07
2017-11-16T23:54:21.600Z,35.90
2017-11-16T23:56:49.103Z,39.43
2017-11-16T23:59:16.601Z,36.43
